Time,TemperatureF,DewpointF,PressureIn,WindDirection,WindDirectionDegrees,WindSpeedMPH,WindSpeedGustMPH,Humidity,HourlyPrecipIn,Conditions,Clouds,dailyrainin,SoftwareType,DateUTC
2013-01-28 00:00:00,12.4,-3.2,30.48,SSE,157,0.0,0.0,49,0.00,,,0.00,WUHU21623XXSP,2013-01-28 05:00:00,
2013-01-28 00:03:00,12.0,-2.7,30.48,SSE,157,0.0,0.0,51,0.00,,,0.00,WUHU21623XXSP,2013-01-28 05:03:00,
2013-01-28 00:04:00,11.8,-2.9,30.48,SSE,157,0.0,0.0,51,0.00,,,0.00,WUHU21623XXSP,2013-01-28 05:04:00,
2013-01-28 00:09:00,11.5,-3.6,30.47,SSE,157,0.0,0.0,50,0.00,,,0.00,WUHU21623XXSP,2013-01-28 05:09:00,
2013-01-28 00:14:00,11.1,-3.9,30.47,SSE,157,0.0,0.0,50,0.00,,,0.00,WUHU21623XXSP,2013-01-28 05:14:00,
2013-01-28 00:19:00,11.1,-3.9,30.47,SSE,157,0.0,0.0,50,0.00,,,0.00,WUHU21623XXSP,2013-01-28 05:19:00,
2013-01-28 00:24:00,10.9,-4.1,30.47,SSE,157,0.0,0.0,50,0.00,,,0.00,WUHU21623XXSP,2013-01-28 05:24:00,
2013-01-28 00:29:00,10.6,-3.6,30.46,SSE,157,0.0,0.0,52,0.00,,,0.00,WUHU21623XXSP,2013-01-28 05:29:00,
2013-01-28 00:34:00,10.2,-4.3,30.46,SSE,157,0.0,0.0,51,0.00,,,0.00,WUHU21623XXSP,2013-01-28 05:34:00,
2013-01-28 00:39:00,10.2,-4.0,30.46,SSE,157,0.0,0.0,52,0.00,,,0.00,WUHU21623XXSP,2013-01-28 05:39:00,
2013-01-28 00:44:00,10.2,-3.6,30.47,SSE,157,0.0,0.0,53,0.00,,,0.00,WUHU21623XXSP,2013-01-28 05:44:00,
2013-01-28 00:49:00,10.0,-3.8,30.46,SSE,157,0.0,0.0,53,0.00,,,0.00,WUHU21623XXSP,2013-01-28 05:49:00,
2013-01-28 00:54:00,10.0,-3.8,30.47,SSE,157,0.0,0.0,53,0.00,,,0.00,WUHU21623XXSP,2013-01-28 05:54:00,
2013-01-28 00:59:00,9.7,-4.1,30.47,SSE,157,0.0,0.0,53,0.00,,,0.00,WUHU21623XXSP,2013-01-28 05:59:00,
2013-01-28 01:04:00,9.7,-3.7,30.48,SSE,157,0.0,0.0,54,0.00,,,0.00,WUHU21623XXSP,2013-01-28 06:04:00,
2013-01-28 01:09:00,9.7,-3.7,30.47,SSE,157,0.0,0.0,54,0.00,,,0.00,WUHU21623XXSP,2013-01-28 06:09:00,
2013-01-28 01:14:00,9.5,-3.6,30.47,SSE,157,0.0,0.0,55,0.00,,,0.00,WUHU21623XXSP,2013-01-28 06:14:00,
2013-01-28 01:19:00,9.3,-3.4,30.48,SSE,157,0.0,0.0,56,0.00,,,0.00,WUHU21623XXSP,2013-01-28 06:19:00,
2013-01-28 01:24:00,9.1,-3.5,30.48,SSE,157,0.0,0.0,56,0.00,,,0.00,WUHU21623XXSP,2013-01-28 06:24:00,
2013-01-28 01:29:00,9.1,-3.5,30.48,SSE,157,0.0,0.0,56,0.00,,,0.00,WUHU21623XXSP,2013-01-28 06:29:00,
2013-01-28 01:34:00,9.3,-3.7,30.48,SSE,157,0.0,0.0,55,0.00,,,0.00,WUHU21623XXSP,2013-01-28 06:34:00,
2013-01-28 01:39:00,10.0,-3.4,30.48,South,180,0.0,0.0,54,0.00,,,0.00,WUHU21623XXSP,2013-01-28 06:39:00,
2013-01-28 01:44:00,10.9,-2.5,30.48,South,180,0.0,0.0,54,0.00,,,0.00,WUHU21623XXSP,2013-01-28 06:44:00,
2013-01-28 01:49:00,12.0,-1.9,30.49,WNW,292,0.0,3.6,53,0.00,,,0.00,WUHU21623XXSP,2013-01-28 06:49:00,
2013-01-28 01:54:00,12.7,-2.1,30.48,WNW,292,0.9,3.6,51,0.00,,,0.00,WUHU21623XXSP,2013-01-28 06:54:00,
2013-01-28 01:59:00,13.1,-1.7,30.48,WNW,292,0.0,2.0,51,0.00,,,0.00,WUHU21623XXSP,2013-01-28 06:59:00,
2013-01-28 02:04:00,13.6,-1.6,30.48,SW,225,0.0,3.8,50,0.00,,,0.00,WUHU21623XXSP,2013-01-28 07:04:00,
2013-01-28 02:09:00,13.8,-1.5,30.48,WSW,247,0.0,3.8,50,0.00,,,0.00,WUHU21623XXSP,2013-01-28 07:09:00,
2013-01-28 02:14:00,14.2,-1.6,30.48,SW,225,0.0,5.6,49,0.00,,,0.00,WUHU21623XXSP,2013-01-28 07:14:00,
2013-01-28 02:19:00,13.8,-1.9,30.47,SW,225,0.0,5.6,49,0.00,,,0.00,WUHU21623XXSP,2013-01-28 07:19:00,
2013-01-28 02:24:00,14.0,-2.2,30.46,NW,315,0.0,1.8,48,0.00,,,0.00,WUHU21623XXSP,2013-01-28 07:24:00,
2013-01-28 02:29:00,13.8,-2.4,30.47,NW,315,0.0,1.8,48,0.00,,,0.00,WUHU21623XXSP,2013-01-28 07:29:00,
2013-01-28 02:34:00,13.1,-2.6,30.47,NW,315,0.0,0.0,49,0.00,,,0.00,WUHU21623XXSP,2013-01-28 07:34:00,
2013-01-28 02:39:00,12.4,-3.2,30.47,NW,315,0.0,0.0,49,0.00,,,0.00,WUHU21623XXSP,2013-01-28 07:39:00,
2013-01-28 02:44:00,11.8,-3.2,30.47,NW,315,0.0,0.0,50,0.00,,,0.00,WUHU21623XXSP,2013-01-28 07:44:00,
2013-01-28 02:49:00,11.7,-3.4,30.46,NW,315,0.0,0.0,50,0.00,,,0.00,WUHU21623XXSP,2013-01-28 07:49:00,
2013-01-28 02:54:00,11.7,-3.0,30.46,NW,315,0.0,0.0,51,0.00,,,0.00,WUHU21623XXSP,2013-01-28 07:54:00,
2013-01-28 02:59:00,11.8,-2.9,30.46,NW,315,0.0,0.0,51,0.00,,,0.00,WUHU21623XXSP,2013-01-28 07:59:00,
2013-01-28 03:04:00,12.0,-3.1,30.46,NW,315,0.0,0.0,50,0.00,,,0.00,WUHU21623XXSP,2013-01-28 08:04:00,
2013-01-28 03:09:00,12.2,-2.9,30.46,NW,315,0.0,0.0,50,0.00,,,0.00,WUHU21623XXSP,2013-01-28 08:09:00,
2013-01-28 03:14:00,12.4,-2.8,30.46,NW,315,0.0,0.0,50,0.00,,,0.00,WUHU21623XXSP,2013-01-28 08:14:00,
2013-01-28 03:19:00,12.4,-2.8,30.46,NW,315,0.0,0.0,50,0.00,,,0.00,WUHU21623XXSP,2013-01-28 08:19:00,
2013-01-28 03:24:00,12.7,-2.4,30.46,NW,315,0.0,0.0,50,0.00,,,0.00,WUHU21623XXSP,2013-01-28 08:24:00,
2013-01-28 03:29:00,12.7,-2.4,30.46,NW,315,0.0,0.0,50,0.00,,,0.00,WUHU21623XXSP,2013-01-28 08:29:00,
2013-01-28 03:34:00,12.6,-2.6,30.45,NW,315,0.0,0.0,50,0.00,,,0.00,WUHU21623XXSP,2013-01-28 08:34:00,
2013-01-28 03:39:00,12.2,-2.9,30.45,NW,315,0.0,0.0,50,0.00,,,0.00,WUHU21623XXSP,2013-01-28 08:39:00,
2013-01-28 03:44:00,11.8,-2.9,30.45,NW,315,0.0,0.0,51,0.00,,,0.00,WUHU21623XXSP,2013-01-28 08:44:00,
2013-01-28 03:49:00,11.1,-3.5,30.45,NW,315,0.0,0.0,51,0.00,,,0.00,WUHU21623XXSP,2013-01-28 08:49:00,
2013-01-28 03:54:00,10.8,-3.5,30.45,NW,315,0.0,0.0,52,0.00,,,0.00,WUHU21623XXSP,2013-01-28 08:54:00,
2013-01-28 03:59:00,10.6,-3.6,30.45,NW,315,0.0,0.0,52,0.00,,,0.00,WUHU21623XXSP,2013-01-28 08:59:00,
2013-01-28 04:04:00,10.4,-3.8,30.45,NW,315,0.0,2.2,52,0.00,,,0.00,WUHU21623XXSP,2013-01-28 09:04:00,
2013-01-28 04:09:00,10.6,-1.7,30.45,NW,315,0.0,2.2,57,0.00,,,0.00,WUHU21623XXSP,2013-01-28 09:09:00,
2013-01-28 04:14:00,11.1,-0.1,30.45,NW,315,0.0,0.7,60,0.00,,,0.00,WUHU21623XXSP,2013-01-28 09:14:00,
2013-01-28 04:19:00,10.6,-1.7,30.44,NW,315,0.0,2.9,57,0.00,,,0.00,WUHU21623XXSP,2013-01-28 09:19:00,
2013-01-28 04:24:00,10.2,-2.5,30.44,NW,315,0.0,2.9,56,0.00,,,0.00,WUHU21623XXSP,2013-01-28 09:24:00,
2013-01-28 04:29:00,10.2,-2.8,30.44,NW,315,0.0,0.0,55,0.00,,,0.00,WUHU21623XXSP,2013-01-28 09:29:00,
2013-01-28 04:34:00,10.6,-2.1,30.44,NW,315,0.0,0.0,56,0.00,,,0.00,WUHU21623XXSP,2013-01-28 09:34:00,
2013-01-28 04:39:00,10.6,-1.7,30.44,NW,315,0.0,0.0,57,0.00,,,0.00,WUHU21623XXSP,2013-01-28 09:39:00,
2013-01-28 04:44:00,10.2,-1.3,30.44,NW,315,0.0,0.0,59,0.00,,,0.00,WUHU21623XXSP,2013-01-28 09:44:00,
2013-01-28 04:49:00,10.0,-1.9,30.44,NW,315,0.0,0.0,58,0.00,,,0.00,WUHU21623XXSP,2013-01-28 09:49:00,
2013-01-28 04:54:00,9.7,-1.9,30.43,NW,315,0.0,0.0,59,0.00,,,0.00,WUHU21623XXSP,2013-01-28 09:54:00,
2013-01-28 04:59:00,9.7,-2.2,30.43,NW,315,0.0,0.0,58,0.00,,,0.00,WUHU21623XXSP,2013-01-28 09:59:00,
2013-01-28 05:04:00,9.7,-1.9,30.44,NW,315,0.0,0.0,59,0.00,,,0.00,WUHU21623XXSP,2013-01-28 10:04:00,
2013-01-28 05:09:00,9.7,-1.5,30.44,NW,315,0.0,0.0,60,0.00,,,0.00,WUHU21623XXSP,2013-01-28 10:09:00,
2013-01-28 05:14:00,9.7,-1.2,30.44,NW,315,0.0,0.0,61,0.00,,,0.00,WUHU21623XXSP,2013-01-28 10:14:00,
2013-01-28 05:19:00,9.7,-1.2,30.43,NW,315,0.0,0.0,61,0.00,,,0.00,WUHU21623XXSP,2013-01-28 10:19:00,
2013-01-28 05:24:00,9.7,-2.2,30.43,NW,315,0.0,0.0,58,0.00,,,0.00,WUHU21623XXSP,2013-01-28 10:24:00,
2013-01-28 05:29:00,10.0,-1.9,30.43,NW,315,0.0,0.0,58,0.00,,,0.00,WUHU21623XXSP,2013-01-28 10:29:00,
2013-01-28 05:34:00,10.0,-1.9,30.43,NW,315,0.0,0.0,58,0.00,,,0.00,WUHU21623XXSP,2013-01-28 10:34:00,
2013-01-28 05:39:00,10.0,-1.5,30.43,NW,315,0.0,0.0,59,0.00,,,0.00,WUHU21623XXSP,2013-01-28 10:39:00,
2013-01-28 05:44:00,10.0,-1.1,30.43,NW,315,0.0,0.0,60,0.00,,,0.00,WUHU21623XXSP,2013-01-28 10:44:00,
2013-01-28 05:49:00,10.0,-1.1,30.44,NW,315,0.0,0.0,60,0.00,,,0.00,WUHU21623XXSP,2013-01-28 10:49:00,
2013-01-28 05:54:00,10.2,-1.3,30.43,NW,315,0.0,0.0,59,0.00,,,0.00,WUHU21623XXSP,2013-01-28 10:54:00,
2013-01-28 05:59:00,10.2,-1.7,30.44,NW,315,0.0,0.0,58,0.00,,,0.00,WUHU21623XXSP,2013-01-28 10:59:00,
2013-01-28 06:04:00,10.6,-1.4,30.43,NW,315,0.0,0.0,58,0.00,,,0.00,WUHU21623XXSP,2013-01-28 11:04:00,
2013-01-28 06:09:00,10.6,-1.7,30.44,NW,315,0.0,0.0,57,0.00,,,0.00,WUHU21623XXSP,2013-01-28 11:09:00,
2013-01-28 06:14:00,10.8,-1.6,30.43,NW,315,0.0,0.0,57,0.00,,,0.00,WUHU21623XXSP,2013-01-28 11:14:00,
2013-01-28 06:19:00,10.9,-1.8,30.43,NW,315,0.0,0.0,56,0.00,,,0.00,WUHU21623XXSP,2013-01-28 11:19:00,
2013-01-28 06:24:00,11.1,-2.0,30.43,NW,315,0.0,0.0,55,0.00,,,0.00,WUHU21623XXSP,2013-01-28 11:24:00,
2013-01-28 06:29:00,11.1,-0.9,30.43,NW,315,0.0,0.0,58,0.00,,,0.00,WUHU21623XXSP,2013-01-28 11:29:00,
2013-01-28 06:34:00,10.9,-0.3,30.43,NW,315,0.0,0.0,60,0.00,,,0.00,WUHU21623XXSP,2013-01-28 11:34:00,
2013-01-28 06:39:00,10.6,-0.6,30.43,NW,315,0.0,0.0,60,0.00,,,0.00,WUHU21623XXSP,2013-01-28 11:39:00,
2013-01-28 06:44:00,10.2,-1.3,30.43,NW,315,0.0,0.0,59,0.00,,,0.00,WUHU21623XXSP,2013-01-28 11:44:00,
2013-01-28 06:49:00,10.2,-1.3,30.43,NW,315,0.0,0.0,59,0.00,,,0.00,WUHU21623XXSP,2013-01-28 11:49:00,
2013-01-28 06:54:00,10.2,-1.3,30.43,NW,315,0.0,0.0,59,0.00,,,0.00,WUHU21623XXSP,2013-01-28 11:54:00,
2013-01-28 06:59:00,10.6,-1.0,30.43,NW,315,0.0,0.0,59,0.00,,,0.00,WUHU21623XXSP,2013-01-28 11:59:00,
2013-01-28 07:04:00,10.6,-1.0,30.43,NW,315,0.0,0.0,59,0.00,,,0.00,WUHU21623XXSP,2013-01-28 12:04:00,
2013-01-28 07:09:00,10.6,-1.4,30.42,NW,315,0.0,0.0,58,0.00,,,0.00,WUHU21623XXSP,2013-01-28 12:09:00,
2013-01-28 07:14:00,10.6,-1.4,30.42,NW,315,0.0,0.0,58,0.00,,,0.00,WUHU21623XXSP,2013-01-28 12:14:00,
2013-01-28 07:19:00,10.8,-0.8,30.42,NW,315,0.0,0.0,59,0.00,,,0.00,WUHU21623XXSP,2013-01-28 12:19:00,
2013-01-28 07:24:00,10.9,-0.7,30.42,NW,315,0.0,0.0,59,0.00,,,0.00,WUHU21623XXSP,2013-01-28 12:24:00,
2013-01-28 07:29:00,11.1,-0.9,30.43,NW,315,0.0,0.0,58,0.00,,,0.00,WUHU21623XXSP,2013-01-28 12:29:00,
2013-01-28 07:34:00,11.5,-0.2,30.43,NW,315,0.0,0.0,59,0.00,,,0.00,WUHU21623XXSP,2013-01-28 12:34:00,
2013-01-28 07:39:00,11.5,-0.5,30.43,NW,315,0.0,0.0,58,0.00,,,0.00,WUHU21623XXSP,2013-01-28 12:39:00,
2013-01-28 07:44:00,11.5,-0.9,30.43,NW,315,0.0,0.0,57,0.00,,,0.00,WUHU21623XXSP,2013-01-28 12:44:00,
2013-01-28 07:49:00,11.8,-0.6,30.43,NW,315,0.0,0.0,57,0.00,,,0.00,WUHU21623XXSP,2013-01-28 12:49:00,
2013-01-28 07:54:00,12.4,0.3,30.43,NW,315,0.0,0.0,58,0.00,,,0.00,WUHU21623XXSP,2013-01-28 12:54:00,
2013-01-28 07:59:00,12.4,-0.1,30.42,NW,315,0.0,0.0,57,0.00,,,0.00,WUHU21623XXSP,2013-01-28 12:59:00,
2013-01-28 08:04:00,12.7,0.2,30.42,NW,315,0.0,0.0,57,0.00,,,0.00,WUHU21623XXSP,2013-01-28 13:04:00,
2013-01-28 08:09:00,12.7,-0.1,30.42,NW,315,0.0,0.0,56,0.00,,,0.00,WUHU21623XXSP,2013-01-28 13:09:00,
2013-01-28 08:14:00,13.3,0.0,30.42,NW,315,0.0,0.0,55,0.00,,,0.00,WUHU21623XXSP,2013-01-28 13:14:00,
2013-01-28 08:19:00,13.6,-0.1,30.42,NW,315,0.0,0.0,54,0.00,,,0.00,WUHU21623XXSP,2013-01-28 13:19:00,
2013-01-28 08:24:00,13.8,0.1,30.41,NW,315,0.0,0.0,54,0.00,,,0.00,WUHU21623XXSP,2013-01-28 13:24:00,
2013-01-28 08:29:00,14.2,-0.3,30.41,NW,315,0.0,0.0,52,0.00,,,0.00,WUHU21623XXSP,2013-01-28 13:29:00,
2013-01-28 08:34:00,14.2,-0.3,30.41,NW,315,0.0,0.0,52,0.00,,,0.00,WUHU21623XXSP,2013-01-28 13:34:00,
2013-01-28 08:39:00,14.5,0.0,30.41,NW,315,0.0,0.0,52,0.00,,,0.00,WUHU21623XXSP,2013-01-28 13:39:00,
2013-01-28 08:44:00,14.7,0.2,30.41,NW,315,0.0,0.0,52,0.00,,,0.00,WUHU21623XXSP,2013-01-28 13:44:00,
2013-01-28 08:49:00,15.1,-0.2,30.41,NW,315,0.0,0.0,50,0.00,,,0.00,WUHU21623XXSP,2013-01-28 13:49:00,
2013-01-28 08:54:00,15.6,0.7,30.41,NW,315,0.0,0.0,51,0.00,,,0.00,WUHU21623XXSP,2013-01-28 13:54:00,
2013-01-28 08:59:00,15.8,0.5,30.41,NW,315,0.0,0.0,50,0.00,,,0.00,WUHU21623XXSP,2013-01-28 13:59:00,
2013-01-28 09:04:00,16.2,0.8,30.41,NW,315,0.0,0.0,50,0.00,,,0.00,WUHU21623XXSP,2013-01-28 14:04:00,
2013-01-28 09:09:00,16.3,1.4,30.42,NW,315,0.0,0.0,51,0.00,,,0.00,WUHU21623XXSP,2013-01-28 14:09:00,
2013-01-28 09:14:00,16.5,1.5,30.41,NW,315,0.0,0.0,51,0.00,,,0.00,WUHU21623XXSP,2013-01-28 14:14:00,
2013-01-28 09:19:00,16.9,2.2,30.41,NW,315,0.0,0.0,52,0.00,,,0.00,WUHU21623XXSP,2013-01-28 14:19:00,
2013-01-28 09:24:00,17.2,3.4,30.41,NW,315,0.0,0.0,54,0.00,,,0.00,WUHU21623XXSP,2013-01-28 14:24:00,
2013-01-28 09:29:00,17.4,3.1,30.41,NW,315,0.0,0.0,53,0.00,,,0.00,WUHU21623XXSP,2013-01-28 14:29:00,
2013-01-28 09:34:00,18.0,3.6,30.40,NW,315,0.0,0.0,53,0.00,,,0.00,WUHU21623XXSP,2013-01-28 14:34:00,
2013-01-28 09:39:00,18.3,4.0,30.40,NW,315,0.0,0.0,53,0.00,,,0.00,WUHU21623XXSP,2013-01-28 14:39:00,
2013-01-28 09:44:00,18.3,3.6,30.40,NW,315,0.0,0.0,52,0.00,,,0.00,WUHU21623XXSP,2013-01-28 14:44:00,
2013-01-28 09:49:00,18.7,3.9,30.40,NW,315,0.0,0.0,52,0.00,,,0.00,WUHU21623XXSP,2013-01-28 14:49:00,
2013-01-28 09:54:00,18.3,3.2,30.40,NW,315,0.0,0.0,51,0.00,,,0.00,WUHU21623XXSP,2013-01-28 14:54:00,
2013-01-28 09:59:00,18.5,4.1,30.40,NW,315,0.0,0.0,53,0.00,,,0.00,WUHU21623XXSP,2013-01-28 14:59:00,
2013-01-28 10:04:00,18.3,3.2,30.39,NW,315,0.0,0.0,51,0.00,,,0.00,WUHU21623XXSP,2013-01-28 15:04:00,
2013-01-28 10:09:00,18.3,2.8,30.39,NW,315,0.0,0.0,50,0.00,,,0.00,WUHU21623XXSP,2013-01-28 15:09:00,
2013-01-28 10:14:00,18.5,2.9,30.39,NW,315,0.0,0.0,50,0.00,,,0.00,WUHU21623XXSP,2013-01-28 15:14:00,
2013-01-28 10:19:00,18.7,2.6,30.39,NW,315,0.0,0.0,49,0.00,,,0.00,WUHU21623XXSP,2013-01-28 15:19:00,
2013-01-28 10:24:00,19.0,2.9,30.38,NW,315,0.0,0.0,49,0.00,,,0.00,WUHU21623XXSP,2013-01-28 15:24:00,
2013-01-28 10:29:00,19.2,3.1,30.38,NW,315,0.0,0.0,49,0.00,,,0.00,WUHU21623XXSP,2013-01-28 15:29:00,
2013-01-28 10:34:00,19.6,3.4,30.38,NW,315,0.0,0.0,49,0.00,,,0.00,WUHU21623XXSP,2013-01-28 15:34:00,
2013-01-28 10:39:00,19.9,3.3,30.38,NW,315,0.0,0.0,48,0.00,,,0.00,WUHU21623XXSP,2013-01-28 15:39:00,
2013-01-28 10:44:00,20.1,3.9,30.38,NW,315,0.0,0.0,49,0.00,,,0.00,WUHU21623XXSP,2013-01-28 15:44:00,
2013-01-28 10:49:00,20.5,3.8,30.38,NW,315,0.0,0.0,48,0.00,,,0.00,WUHU21623XXSP,2013-01-28 15:49:00,
2013-01-28 10:54:00,20.8,5.0,30.38,NW,315,0.0,0.0,50,0.00,,,0.00,WUHU21623XXSP,2013-01-28 15:54:00,
2013-01-28 10:59:00,21.0,4.7,30.38,NW,315,0.0,0.0,49,0.00,,,0.00,WUHU21623XXSP,2013-01-28 15:59:00,
2013-01-28 11:04:00,21.4,4.6,30.37,NW,315,0.0,0.0,48,0.00,,,0.00,WUHU21623XXSP,2013-01-28 16:04:00,
2013-01-28 11:09:00,21.7,5.4,30.37,NW,315,0.0,0.0,49,0.00,,,0.00,WUHU21623XXSP,2013-01-28 16:09:00,
2013-01-28 11:14:00,21.6,4.8,30.36,NW,315,0.0,0.0,48,0.00,,,0.00,WUHU21623XXSP,2013-01-28 16:14:00,
2013-01-28 11:19:00,21.4,4.6,30.36,NW,315,0.0,0.0,48,0.00,,,0.00,WUHU21623XXSP,2013-01-28 16:19:00,
2013-01-28 11:24:00,21.4,5.5,30.36,NW,315,0.0,0.0,50,0.00,,,0.00,WUHU21623XXSP,2013-01-28 16:24:00,
2013-01-28 11:29:00,21.6,5.7,30.35,NW,315,0.0,0.0,50,0.00,,,0.00,WUHU21623XXSP,2013-01-28 16:29:00,
2013-01-28 11:34:00,21.6,7.8,30.35,NW,315,0.0,0.0,55,0.00,,,0.00,WUHU21623XXSP,2013-01-28 16:34:00,
2013-01-28 11:39:00,21.6,9.4,30.34,NW,315,0.0,0.0,59,0.00,,,0.00,WUHU21623XXSP,2013-01-28 16:39:00,
2013-01-28 11:44:00,21.4,10.3,30.34,WNW,292,0.0,0.0,62,0.00,,,0.00,WUHU21623XXSP,2013-01-28 16:44:00,
2013-01-28 11:49:00,21.4,11.0,30.33,SSW,202,0.0,3.1,64,0.00,,,0.00,WUHU21623XXSP,2013-01-28 16:49:00,
2013-01-28 11:54:00,21.0,11.4,30.34,SSW,202,0.0,3.1,66,0.00,,,0.00,WUHU21623XXSP,2013-01-28 16:54:00,
2013-01-28 11:59:00,21.4,12.1,30.35,SSW,202,0.0,2.5,67,0.00,,,0.00,WUHU21623XXSP,2013-01-28 16:59:00,
2013-01-28 12:04:00,21.0,12.4,30.34,SSW,202,0.0,2.5,69,0.00,,,0.00,WUHU21623XXSP,2013-01-28 17:04:00,
2013-01-28 12:09:00,20.8,12.6,30.34,SSW,202,0.0,1.1,70,0.00,,,0.00,WUHU21623XXSP,2013-01-28 17:09:00,
2013-01-28 12:14:00,21.0,13.4,30.33,SSW,202,0.0,0.0,72,0.00,,,0.00,WUHU21623XXSP,2013-01-28 17:14:00,
2013-01-28 12:19:00,21.0,14.0,30.32,SSW,202,0.0,0.0,74,0.00,,,0.00,WUHU21623XXSP,2013-01-28 17:19:00,
2013-01-28 12:24:00,20.5,13.1,30.32,SSW,202,0.0,0.0,73,0.00,,,0.00,WUHU21623XXSP,2013-01-28 17:24:00,
2013-01-28 12:29:00,20.1,13.1,30.32,SSW,202,0.0,0.0,74,0.00,,,0.00,WUHU21623XXSP,2013-01-28 17:29:00,
2013-01-28 12:34:00,19.9,13.2,30.31,SSW,202,0.0,0.0,75,0.00,,,0.00,WUHU21623XXSP,2013-01-28 17:34:00,
2013-01-28 12:39:00,19.9,13.5,30.31,SSW,202,0.0,0.0,76,0.00,,,0.00,WUHU21623XXSP,2013-01-28 17:39:00,
2013-01-28 12:44:00,19.9,13.5,30.29,SSW,202,0.0,0.0,76,0.00,,,0.00,WUHU21623XXSP,2013-01-28 17:44:00,
2013-01-28 12:49:00,19.9,13.8,30.29,South,180,0.0,0.0,77,0.00,,,0.00,WUHU21623XXSP,2013-01-28 17:49:00,
2013-01-28 12:54:00,20.1,14.3,30.28,South,180,0.0,0.0,78,0.00,,,0.00,WUHU21623XXSP,2013-01-28 17:54:00,
2013-01-28 12:59:00,20.3,14.5,30.28,South,180,0.0,0.0,78,0.00,,,0.00,WUHU21623XXSP,2013-01-28 17:59:00,
2013-01-28 13:04:00,20.8,15.0,30.27,South,180,0.0,0.0,78,0.00,,,0.00,WUHU21623XXSP,2013-01-28 18:04:00,
2013-01-28 13:09:00,21.0,15.2,30.27,South,180,0.0,0.0,78,0.00,,,0.00,WUHU21623XXSP,2013-01-28 18:09:00,
2013-01-28 13:14:00,21.0,15.2,30.26,South,180,0.0,0.0,78,0.00,,,0.00,WUHU21623XXSP,2013-01-28 18:14:00,
2013-01-28 13:19:00,21.2,15.4,30.26,South,180,0.0,0.0,78,0.00,,,0.00,WUHU21623XXSP,2013-01-28 18:19:00,
2013-01-28 13:24:00,21.6,16.0,30.26,South,180,0.0,0.0,79,0.00,,,0.00,WUHU21623XXSP,2013-01-28 18:24:00,
2013-01-28 13:29:00,21.9,16.4,30.25,South,180,0.0,0.0,79,0.00,,,0.00,WUHU21623XXSP,2013-01-28 18:29:00,
2013-01-28 13:34:00,21.7,16.2,30.25,South,180,0.0,0.0,79,0.00,,,0.00,WUHU21623XXSP,2013-01-28 18:34:00,
2013-01-28 13:39:00,21.7,16.2,30.24,South,180,0.0,0.0,79,0.00,,,0.00,WUHU21623XXSP,2013-01-28 18:39:00,
2013-01-28 13:44:00,21.7,16.2,30.23,South,180,0.0,0.0,79,0.00,,,0.00,WUHU21623XXSP,2013-01-28 18:44:00,
2013-01-28 13:49:00,22.1,16.9,30.24,South,180,0.0,0.0,80,0.00,,,0.00,WUHU21623XXSP,2013-01-28 18:49:00,
2013-01-28 13:54:00,22.1,16.9,30.23,South,180,0.0,0.0,80,0.00,,,0.00,WUHU21623XXSP,2013-01-28 18:54:00,
2013-01-28 13:59:00,21.9,16.4,30.23,NE,45,0.0,0.0,79,0.00,,,0.00,WUHU21623XXSP,2013-01-28 18:59:00,
2013-01-28 14:04:00,21.6,16.0,30.23,ENE,67,0.0,0.0,79,0.00,,,0.00,WUHU21623XXSP,2013-01-28 19:04:00,
2013-01-28 14:09:00,21.4,15.9,30.23,NE,45,0.0,0.0,79,0.00,,,0.00,WUHU21623XXSP,2013-01-28 19:09:00,
2013-01-28 14:14:00,21.0,15.8,30.23,NE,45,0.0,0.0,80,0.00,,,0.00,WUHU21623XXSP,2013-01-28 19:14:00,
2013-01-28 14:19:00,20.8,15.6,30.23,NE,45,0.0,0.0,80,0.00,,,0.00,WUHU21623XXSP,2013-01-28 19:19:00,
2013-01-28 14:24:00,20.8,15.6,30.23,NE,45,0.0,0.0,80,0.00,,,0.00,WUHU21623XXSP,2013-01-28 19:24:00,
2013-01-28 14:29:00,20.8,15.6,30.23,NE,45,0.0,0.0,80,0.00,,,0.00,WUHU21623XXSP,2013-01-28 19:29:00,
2013-01-28 14:34:00,20.8,15.9,30.23,NE,45,0.0,0.0,81,0.00,,,0.00,WUHU21623XXSP,2013-01-28 19:34:00,
2013-01-28 14:39:00,20.8,15.9,30.22,NE,45,0.0,0.0,81,0.00,,,0.00,WUHU21623XXSP,2013-01-28 19:39:00,
2013-01-28 14:44:00,20.8,15.9,30.22,NE,45,0.0,0.0,81,0.00,,,0.00,WUHU21623XXSP,2013-01-28 19:44:00,
2013-01-28 14:49:00,21.0,16.1,30.22,NE,45,0.0,0.0,81,0.00,,,0.00,WUHU21623XXSP,2013-01-28 19:49:00,
2013-01-28 14:54:00,21.0,16.1,30.22,NE,45,0.0,0.0,81,0.00,,,0.00,WUHU21623XXSP,2013-01-28 19:54:00,
2013-01-28 14:59:00,20.8,15.9,30.22,NE,45,0.0,0.0,81,0.00,,,0.00,WUHU21623XXSP,2013-01-28 19:59:00,
2013-01-28 15:04:00,20.8,15.9,30.22,ENE,67,0.0,0.0,81,0.00,,,0.00,WUHU21623XXSP,2013-01-28 20:04:00,
2013-01-28 15:09:00,20.8,16.2,30.22,ENE,67,0.0,0.0,82,0.00,,,0.00,WUHU21623XXSP,2013-01-28 20:09:00,
2013-01-28 15:14:00,20.8,16.2,30.21,ENE,67,0.0,0.0,82,0.00,,,0.00,WUHU21623XXSP,2013-01-28 20:14:00,
2013-01-28 15:19:00,21.0,16.6,30.21,ENE,67,0.0,0.0,83,0.00,,,0.00,WUHU21623XXSP,2013-01-28 20:19:00,
2013-01-28 15:24:00,20.8,16.4,30.21,ENE,67,0.0,0.0,83,0.00,,,0.00,WUHU21623XXSP,2013-01-28 20:24:00,
2013-01-28 15:29:00,20.3,15.6,30.20,ENE,67,0.0,0.0,82,0.00,,,0.00,WUHU21623XXSP,2013-01-28 20:29:00,
2013-01-28 15:34:00,20.8,16.7,30.20,ENE,67,0.0,0.0,84,0.00,,,0.00,WUHU21623XXSP,2013-01-28 20:34:00,
2013-01-28 15:39:00,20.5,16.3,30.20,ENE,67,0.0,0.0,84,0.00,,,0.00,WUHU21623XXSP,2013-01-28 20:39:00,
2013-01-28 15:44:00,20.1,15.7,30.20,ENE,67,0.0,0.0,83,0.00,,,0.00,WUHU21623XXSP,2013-01-28 20:44:00,
2013-01-28 15:49:00,19.9,15.5,30.20,ENE,67,0.0,0.0,83,0.00,,,0.00,WUHU21623XXSP,2013-01-28 20:49:00,
2013-01-28 15:54:00,20.1,15.7,30.20,ENE,67,0.0,0.0,83,0.00,,,0.00,WUHU21623XXSP,2013-01-28 20:54:00,
2013-01-28 15:59:00,19.9,15.5,30.20,ENE,67,0.0,0.0,83,0.00,,,0.00,WUHU21623XXSP,2013-01-28 20:59:00,
2013-01-28 16:04:00,19.9,15.5,30.20,NE,45,0.0,0.0,83,0.00,,,0.00,WUHU21623XXSP,2013-01-28 21:04:00,
2013-01-28 16:09:00,19.9,15.5,30.20,NE,45,0.0,0.0,83,0.00,,,0.00,WUHU21623XXSP,2013-01-28 21:09:00,
2013-01-28 16:14:00,20.1,16.0,30.19,NE,45,0.0,0.0,84,0.00,,,0.00,WUHU21623XXSP,2013-01-28 21:14:00,
2013-01-28 16:19:00,19.8,15.3,30.19,NE,45,0.0,0.0,83,0.00,,,0.00,WUHU21623XXSP,2013-01-28 21:19:00,
2013-01-28 16:24:00,19.6,15.2,30.19,NE,45,0.0,0.0,83,0.00,,,0.00,WUHU21623XXSP,2013-01-28 21:24:00,
2013-01-28 16:29:00,19.6,15.2,30.19,NE,45,0.0,0.0,83,0.00,,,0.00,WUHU21623XXSP,2013-01-28 21:29:00,
2013-01-28 16:34:00,19.6,15.2,30.19,NE,45,0.0,0.0,83,0.00,,,0.00,WUHU21623XXSP,2013-01-28 21:34:00,
2013-01-28 16:39:00,19.6,15.4,30.19,NE,45,0.0,0.0,84,0.00,,,0.00,WUHU21623XXSP,2013-01-28 21:39:00,
2013-01-28 16:44:00,19.6,15.4,30.18,NE,45,0.0,0.0,84,0.00,,,0.00,WUHU21623XXSP,2013-01-28 21:44:00,
2013-01-28 16:49:00,19.2,15.1,30.19,NE,45,0.0,0.0,84,0.00,,,0.00,WUHU21623XXSP,2013-01-28 21:49:00,
2013-01-28 16:54:00,19.2,15.1,30.18,NE,45,0.0,0.0,84,0.00,,,0.00,WUHU21623XXSP,2013-01-28 21:54:00,
2013-01-28 16:59:00,19.2,15.1,30.18,NE,45,0.0,0.0,84,0.00,,,0.00,WUHU21623XXSP,2013-01-28 21:59:00,
2013-01-28 17:04:00,19.0,14.9,30.17,NE,45,0.0,0.0,84,0.00,,,0.00,WUHU21623XXSP,2013-01-28 22:04:00,
2013-01-28 17:09:00,19.2,15.1,30.18,NE,45,0.0,0.0,84,0.00,,,0.00,WUHU21623XXSP,2013-01-28 22:09:00,
2013-01-28 17:14:00,19.2,15.1,30.18,NE,45,0.0,0.0,84,0.00,,,0.00,WUHU21623XXSP,2013-01-28 22:14:00,
2013-01-28 17:19:00,19.0,14.9,30.18,NE,45,0.0,0.0,84,0.00,,,0.00,WUHU21623XXSP,2013-01-28 22:19:00,
2013-01-28 17:24:00,19.0,14.9,30.17,NE,45,0.0,0.0,84,0.00,,,0.00,WUHU21623XXSP,2013-01-28 22:24:00,
2013-01-28 17:29:00,19.0,14.9,30.16,NE,45,0.0,0.0,84,0.00,,,0.00,WUHU21623XXSP,2013-01-28 22:29:00,
2013-01-28 17:34:00,19.0,14.9,30.16,NE,45,0.0,0.0,84,0.00,,,0.00,WUHU21623XXSP,2013-01-28 22:34:00,
2013-01-28 17:39:00,19.0,14.9,30.17,NE,45,0.0,0.0,84,0.00,,,0.00,WUHU21623XXSP,2013-01-28 22:39:00,
2013-01-28 17:44:00,19.0,14.9,30.16,NE,45,0.0,0.0,84,0.00,,,0.00,WUHU21623XXSP,2013-01-28 22:44:00,
2013-01-28 17:49:00,19.0,14.9,30.16,NE,45,0.0,0.0,84,0.00,,,0.00,WUHU21623XXSP,2013-01-28 22:49:00,
2013-01-28 17:54:00,19.0,14.9,30.17,NE,45,0.0,0.0,84,0.00,,,0.00,WUHU21623XXSP,2013-01-28 22:54:00,
2013-01-28 17:59:00,19.0,14.9,30.15,NE,45,0.0,0.0,84,0.00,,,0.00,WUHU21623XXSP,2013-01-28 22:59:00,
2013-01-28 18:04:00,18.9,14.7,30.16,NE,45,0.0,0.0,84,0.00,,,0.00,WUHU21623XXSP,2013-01-28 23:04:00,
2013-01-28 18:09:00,18.9,15.0,30.16,NE,45,0.0,0.0,85,0.00,,,0.00,WUHU21623XXSP,2013-01-28 23:09:00,
2013-01-28 18:14:00,18.7,14.8,30.17,NE,45,0.0,0.0,85,0.00,,,0.00,WUHU21623XXSP,2013-01-28 23:14:00,
2013-01-28 18:19:00,18.7,14.8,30.16,NE,45,0.0,0.0,85,0.00,,,0.00,WUHU21623XXSP,2013-01-28 23:19:00,
2013-01-28 18:24:00,18.7,14.8,30.16,NE,45,0.0,0.0,85,0.00,,,0.00,WUHU21623XXSP,2013-01-28 23:24:00,
2013-01-28 18:29:00,18.9,15.0,30.16,NE,45,0.0,0.0,85,0.00,,,0.00,WUHU21623XXSP,2013-01-28 23:29:00,
2013-01-28 18:34:00,18.9,15.0,30.16,NE,45,0.0,0.0,85,0.00,,,0.00,WUHU21623XXSP,2013-01-28 23:34:00,
2013-01-28 18:39:00,18.9,15.0,30.17,NE,45,0.0,0.0,85,0.00,,,0.00,WUHU21623XXSP,2013-01-28 23:39:00,
2013-01-28 18:44:00,18.7,14.8,30.16,NE,45,0.0,0.0,85,0.00,,,0.00,WUHU21623XXSP,2013-01-28 23:44:00,
2013-01-28 18:49:00,18.9,15.0,30.16,NE,45,0.0,0.0,85,0.00,,,0.00,WUHU21623XXSP,2013-01-28 23:49:00,
2013-01-28 18:54:00,18.9,15.0,30.16,NE,45,0.0,0.0,85,0.00,,,0.00,WUHU21623XXSP,2013-01-28 23:54:00,
2013-01-28 18:59:00,18.9,15.0,30.16,NE,45,0.0,0.0,85,0.00,,,0.00,WUHU21623XXSP,2013-01-28 23:59:00,
2013-01-28 19:04:00,18.9,15.0,30.16,NE,45,0.0,0.0,85,0.00,,,0.00,WUHU21623XXSP,2013-01-29 00:04:00,
2013-01-28 19:09:00,19.0,15.2,30.15,NE,45,0.0,0.0,85,0.00,,,0.00,WUHU21623XXSP,2013-01-29 00:09:00,
2013-01-28 19:14:00,19.0,15.2,30.15,NE,45,0.0,0.0,85,0.00,,,0.00,WUHU21623XXSP,2013-01-29 00:14:00,
2013-01-28 19:19:00,18.9,15.0,30.15,NE,45,0.0,0.0,85,0.00,,,0.00,WUHU21623XXSP,2013-01-29 00:19:00,
2013-01-28 19:24:00,18.9,15.0,30.15,NE,45,0.0,0.0,85,0.00,,,0.00,WUHU21623XXSP,2013-01-29 00:24:00,
2013-01-28 19:29:00,19.0,15.2,30.14,NE,45,0.0,0.0,85,0.00,,,0.00,WUHU21623XXSP,2013-01-29 00:29:00,
2013-01-28 19:34:00,19.0,15.2,30.14,NE,45,0.0,0.0,85,0.00,,,0.00,WUHU21623XXSP,2013-01-29 00:34:00,
2013-01-28 19:39:00,19.0,15.3,30.14,NE,45,0.0,0.0,85,0.00,,,0.00,WUHU21623XXSP,2013-01-29 00:39:00,
2013-01-28 19:44:00,19.0,15.2,30.14,NE,45,0.0,0.0,85,0.00,,,0.00,WUHU21623XXSP,2013-01-29 00:44:00,
2013-01-28 19:49:00,18.9,15.0,30.13,NE,45,0.0,0.0,85,0.00,,,0.00,WUHU21623XXSP,2013-01-29 00:49:00,
2013-01-28 19:54:00,18.9,15.0,30.13,NE,45,0.0,0.0,85,0.00,,,0.00,WUHU21623XXSP,2013-01-29 00:54:00,
2013-01-28 19:59:00,19.0,15.2,30.13,NE,45,0.0,0.0,85,0.00,,,0.00,WUHU21623XXSP,2013-01-29 00:59:00,
2013-01-28 20:04:00,19.0,15.2,30.13,NE,45,0.0,0.0,85,0.00,,,0.00,WUHU21623XXSP,2013-01-29 01:04:00,
2013-01-28 20:09:00,19.0,15.2,30.13,NE,45,0.0,0.0,85,0.00,,,0.00,WUHU21623XXSP,2013-01-29 01:09:00,
2013-01-28 20:14:00,19.0,15.2,30.13,NE,45,0.0,0.0,85,0.00,,,0.00,WUHU21623XXSP,2013-01-29 01:14:00,
2013-01-28 20:19:00,19.0,15.2,30.13,NE,45,0.0,0.0,85,0.00,,,0.00,WUHU21623XXSP,2013-01-29 01:19:00,
2013-01-28 20:24:00,19.6,16.0,30.13,NE,45,0.0,0.0,86,0.00,,,0.00,WUHU21623XXSP,2013-01-29 01:24:00,
2013-01-28 20:29:00,19.8,15.9,30.12,NE,45,0.0,0.0,85,0.00,,,0.00,WUHU21623XXSP,2013-01-29 01:29:00,
2013-01-28 20:34:00,19.4,15.5,30.12,NE,45,0.0,0.0,85,0.00,,,0.00,WUHU21623XXSP,2013-01-29 01:34:00,
2013-01-28 20:39:00,19.2,15.3,30.12,NE,45,0.0,0.0,85,0.00,,,0.00,WUHU21623XXSP,2013-01-29 01:39:00,
2013-01-28 20:44:00,19.2,15.3,30.12,NE,45,0.0,0.0,85,0.00,,,0.00,WUHU21623XXSP,2013-01-29 01:44:00,
2013-01-28 20:49:00,19.0,15.2,30.12,NE,45,0.0,0.0,85,0.00,,,0.00,WUHU21623XXSP,2013-01-29 01:49:00,
2013-01-28 20:54:00,19.0,15.2,30.12,NE,45,0.0,0.0,85,0.00,,,0.00,WUHU21623XXSP,2013-01-29 01:54:00,
2013-01-28 20:59:00,18.9,15.0,30.13,NE,45,0.0,0.0,85,0.00,,,0.00,WUHU21623XXSP,2013-01-29 01:59:00,
2013-01-28 21:04:00,18.9,15.0,30.12,NE,45,0.0,0.0,85,0.00,,,0.00,WUHU21623XXSP,2013-01-29 02:04:00,
2013-01-28 21:09:00,18.7,14.8,30.12,NE,45,0.0,0.0,85,0.00,,,0.00,WUHU21623XXSP,2013-01-29 02:09:00,
2013-01-28 21:14:00,18.7,14.8,30.12,NE,45,0.0,0.0,85,0.00,,,0.00,WUHU21623XXSP,2013-01-29 02:14:00,
2013-01-28 21:19:00,18.7,14.8,30.11,NE,45,0.0,0.0,85,0.00,,,0.00,WUHU21623XXSP,2013-01-29 02:19:00,
2013-01-28 21:24:00,18.7,14.8,30.11,NE,45,0.0,0.0,85,0.00,,,0.00,WUHU21623XXSP,2013-01-29 02:24:00,
2013-01-28 21:29:00,18.7,15.0,30.11,NE,45,0.0,0.0,85,0.00,,,0.00,WUHU21623XXSP,2013-01-29 02:29:00,
2013-01-28 21:34:00,18.9,15.0,30.11,NE,45,0.0,0.0,85,0.00,,,0.00,WUHU21623XXSP,2013-01-29 02:34:00,
2013-01-28 21:39:00,18.9,15.0,30.10,NE,45,0.0,0.0,85,0.00,,,0.00,WUHU21623XXSP,2013-01-29 02:39:00,
2013-01-28 21:44:00,18.7,14.8,30.10,NE,45,0.0,0.0,85,0.00,,,0.00,WUHU21623XXSP,2013-01-29 02:44:00,
2013-01-28 21:49:00,18.7,14.8,30.10,NE,45,0.0,0.0,85,0.00,,,0.00,WUHU21623XXSP,2013-01-29 02:49:00,
2013-01-28 21:54:00,18.7,14.8,30.10,NE,45,0.0,0.0,85,0.00,,,0.00,WUHU21623XXSP,2013-01-29 02:54:00,
2013-01-28 21:59:00,18.7,14.8,30.10,NE,45,0.0,0.0,85,0.00,,,0.00,WUHU21623XXSP,2013-01-29 02:59:00,
2013-01-28 22:04:00,18.7,14.8,30.10,NE,45,0.0,0.0,85,0.00,,,0.00,WUHU21623XXSP,2013-01-29 03:04:00,
2013-01-28 22:09:00,18.7,14.8,30.10,NE,45,0.0,0.0,85,0.00,,,0.00,WUHU21623XXSP,2013-01-29 03:09:00,
2013-01-28 22:14:00,18.7,14.8,30.10,NE,45,0.0,0.0,85,0.00,,,0.00,WUHU21623XXSP,2013-01-29 03:14:00,
2013-01-28 22:19:00,18.7,14.8,30.10,NE,45,0.0,0.0,85,0.00,,,0.00,WUHU21623XXSP,2013-01-29 03:19:00,
2013-01-28 22:24:00,18.9,15.0,30.10,NE,45,0.0,0.0,85,0.00,,,0.00,WUHU21623XXSP,2013-01-29 03:24:00,
2013-01-28 22:29:00,18.9,15.0,30.10,NE,45,0.0,0.0,85,0.00,,,0.00,WUHU21623XXSP,2013-01-29 03:29:00,
2013-01-28 22:34:00,18.7,14.8,30.09,NE,45,0.0,0.0,85,0.00,,,0.00,WUHU21623XXSP,2013-01-29 03:34:00,
2013-01-28 22:39:00,18.9,14.8,30.09,NE,45,0.0,0.0,85,0.00,,,0.00,WUHU21623XXSP,2013-01-29 03:39:00,
2013-01-28 22:44:00,18.9,15.0,30.09,NE,45,0.0,0.0,85,0.00,,,0.00,WUHU21623XXSP,2013-01-29 03:44:00,
2013-01-28 22:49:00,18.9,15.0,30.09,NE,45,0.0,0.0,85,0.00,,,0.00,WUHU21623XXSP,2013-01-29 03:49:00,
2013-01-28 22:54:00,18.9,15.0,30.09,NE,45,0.0,0.0,85,0.00,,,0.00,WUHU21623XXSP,2013-01-29 03:54:00,
2013-01-28 22:59:00,18.9,15.0,30.10,NE,45,0.0,0.0,85,0.00,,,0.00,WUHU21623XXSP,2013-01-29 03:59:00,
2013-01-28 23:04:00,18.9,15.0,30.09,NE,45,0.0,0.0,85,0.00,,,0.00,WUHU21623XXSP,2013-01-29 04:04:00,
2013-01-28 23:09:00,18.9,15.0,30.10,NE,45,0.0,0.0,85,0.00,,,0.00,WUHU21623XXSP,2013-01-29 04:09:00,
2013-01-28 23:14:00,18.9,15.0,30.09,NE,45,0.0,0.0,85,0.00,,,0.00,WUHU21623XXSP,2013-01-29 04:14:00,
2013-01-28 23:19:00,18.9,15.0,30.10,NE,45,0.0,0.0,85,0.00,,,0.00,WUHU21623XXSP,2013-01-29 04:19:00,
2013-01-28 23:24:00,18.9,15.0,30.09,NE,45,0.0,0.0,85,0.00,,,0.00,WUHU21623XXSP,2013-01-29 04:24:00,
2013-01-28 23:29:00,18.9,15.0,30.09,NE,45,0.0,0.0,85,0.00,,,0.00,WUHU21623XXSP,2013-01-29 04:29:00,
2013-01-28 23:34:00,18.9,15.0,30.09,NE,45,0.0,0.0,85,0.00,,,0.00,WUHU21623XXSP,2013-01-29 04:34:00,
2013-01-28 23:39:00,18.9,15.0,30.10,NE,45,0.0,0.0,85,0.00,,,0.00,WUHU21623XXSP,2013-01-29 04:39:00,
2013-01-28 23:44:00,19.0,15.2,30.10,NE,45,0.0,0.0,85,0.00,,,0.00,WUHU21623XXSP,2013-01-29 04:44:00,
2013-01-28 23:49:00,19.0,15.2,30.10,NE,45,0.0,0.0,85,0.00,,,0.00,WUHU21623XXSP,2013-01-29 04:49:00,
2013-01-28 23:54:00,19.0,15.2,30.10,NE,45,0.0,0.0,85,0.00,,,0.00,WUHU21623XXSP,2013-01-29 04:54:00,
2013-01-28 23:59:00,19.0,15.2,30.10,NE,45,0.0,0.0,85,0.00,,,0.00,WUHU21623XXSP,2013-01-29 04:59:00,